createdAt,value
2017-02-27T00:00:33.867Z,0
2017-02-27T00:01:34.247Z,0
2017-02-27T00:02:33.852Z,0
2017-02-27T00:03:34.233Z,0
2017-02-27T00:04:33.804Z,0
2017-02-27T00:05:34.191Z,0
2017-02-27T00:06:33.423Z,0
2017-02-27T00:07:34.176Z,0
2017-02-27T00:08:33.751Z,0
2017-02-27T00:09:34.147Z,0
2017-02-27T00:10:34.103Z,0
2017-02-27T00:11:34.104Z,0
2017-02-27T00:12:34.077Z,0
2017-02-27T00:13:34.055Z,0
2017-02-27T00:14:33.645Z,0
2017-02-27T00:15:34.009Z,0
2017-02-27T00:16:33.623Z,0
2017-02-27T00:17:33.995Z,0
2017-02-27T00:18:33.985Z,0
2017-02-27T00:19:33.979Z,0
2017-02-27T00:20:33.952Z,0
2017-02-27T00:21:33.545Z,0
2017-02-27T00:22:33.901Z,0
2017-02-27T00:23:33.507Z,0
2017-02-27T00:24:33.118Z,0
2017-02-27T00:25:33.868Z,0
2017-02-27T00:26:33.453Z,0
2017-02-27T00:27:33.452Z,0
2017-02-27T00:28:33.812Z,0
2017-02-27T00:29:33.804Z,0
2017-02-27T00:30:33.777Z,0
2017-02-27T00:31:33.760Z,0
2017-02-27T00:32:33.722Z,0
2017-02-27T00:33:33.751Z,0
2017-02-27T00:34:33.696Z,0
2017-02-27T00:35:33.704Z,0
2017-02-27T00:36:33.278Z,0
2017-02-27T00:37:32.913Z,0
2017-02-27T00:38:33.654Z,0
2017-02-27T00:39:33.231Z,0
2017-02-27T00:40:33.592Z,0
2017-02-27T00:41:33.203Z,0
2017-02-27T00:42:33.608Z,0
2017-02-27T00:43:33.187Z,0
2017-02-27T00:44:33.551Z,0
2017-02-27T00:45:33.542Z,0
2017-02-27T00:46:33.132Z,0
2017-02-27T00:47:33.524Z,0
2017-02-27T00:48:33.468Z,0
2017-02-27T00:49:33.120Z,0
2017-02-27T00:50:33.432Z,0
2017-02-27T00:51:33.430Z,0
2017-02-27T00:52:33.438Z,0
2017-02-27T00:53:33.025Z,0
2017-02-27T00:54:32.990Z,0
2017-02-27T00:55:32.997Z,0
2017-02-27T00:56:32.945Z,0
2017-02-27T00:57:32.937Z,0
2017-02-27T00:58:33.293Z,0
2017-02-27T00:59:33.289Z,0
2017-02-27T01:00:33.277Z,0
2017-02-27T01:01:32.880Z,0
2017-02-27T01:02:32.849Z,0
2017-02-27T01:03:33.265Z,0
2017-02-27T01:04:33.219Z,0
2017-02-27T01:05:33.203Z,0
2017-02-27T01:06:33.181Z,0
2017-02-27T01:07:33.156Z,0
2017-02-27T01:08:33.164Z,0
2017-02-27T01:09:33.114Z,0
2017-02-27T01:10:33.135Z,0
2017-02-27T01:11:33.110Z,0
2017-02-27T01:12:32.708Z,0
2017-02-27T01:13:33.067Z,0
2017-02-27T01:14:33.053Z,0
2017-02-27T01:15:32.661Z,0
2017-02-27T01:16:33.009Z,0
2017-02-27T01:17:33.006Z,0
2017-02-27T01:18:32.991Z,0
2017-02-27T01:19:32.580Z,0
2017-02-27T01:20:32.944Z,0
2017-02-27T01:21:32.914Z,0
2017-02-27T01:22:32.541Z,0
2017-02-27T01:23:32.913Z,0
2017-02-27T01:24:32.923Z,0
2017-02-27T01:25:32.882Z,0
2017-02-27T01:26:32.869Z,0
2017-02-27T01:27:32.844Z,0
2017-02-27T01:28:32.814Z,0
2017-02-27T01:29:32.809Z,0
2017-02-27T01:30:32.791Z,0
2017-02-27T01:31:32.769Z,0
2017-02-27T01:32:32.777Z,0
2017-02-27T01:33:32.822Z,0
2017-02-27T01:34:32.726Z,0
2017-02-27T01:40:33.884Z,0
2017-02-27T01:48:30.375Z,0
2017-02-27T01:52:46.059Z,0
2017-02-27T01:52:56.622Z,0
2017-02-27T01:53:56.594Z,0
2017-02-27T01:54:56.576Z,0
2017-02-27T01:55:56.539Z,0
2017-02-27T01:56:56.163Z,0
2017-02-27T01:57:56.138Z,0
2017-02-27T01:58:56.123Z,0
2017-02-27T01:59:56.100Z,0
2017-02-27T02:00:56.107Z,0
2017-02-27T02:01:56.473Z,0
2017-02-27T02:02:56.073Z,0
2017-02-27T02:03:56.037Z,0
2017-02-27T02:04:56.051Z,0
2017-02-27T02:05:56.395Z,0
2017-02-27T02:06:56.372Z,0
2017-02-27T02:07:56.397Z,0
2017-02-27T02:08:56.347Z,0
2017-02-27T02:09:56.329Z,0
2017-02-27T02:10:56.355Z,0
2017-02-27T02:11:55.922Z,0
2017-02-27T02:12:55.899Z,0
2017-02-27T02:13:56.286Z,0
2017-02-27T02:14:56.253Z,0
2017-02-27T02:15:56.267Z,0
2017-02-27T02:16:55.843Z,0
2017-02-27T02:17:56.221Z,0
2017-02-27T02:18:56.203Z,0
2017-02-27T02:19:55.399Z,0
2017-02-27T02:20:55.393Z,0
2017-02-27T02:21:55.762Z,0
2017-02-27T02:22:55.376Z,0
2017-02-27T02:23:55.349Z,0
2017-02-27T02:24:55.708Z,0
2017-02-27T02:25:56.084Z,0
2017-02-27T02:26:56.091Z,0
2017-02-27T02:27:56.059Z,0
2017-02-27T02:28:56.052Z,0
2017-02-27T02:29:55.635Z,0
2017-02-27T02:30:56.021Z,0
2017-02-27T02:31:56.037Z,0
2017-02-27T02:32:55.613Z,0
2017-02-27T02:33:55.966Z,0
2017-02-27T02:34:55.990Z,0
2017-02-27T02:35:55.159Z,0
2017-02-27T02:36:55.946Z,0
2017-02-27T02:37:55.513Z,0
2017-02-27T02:38:55.881Z,0
2017-02-27T02:39:55.889Z,0
2017-02-27T02:40:55.847Z,0
2017-02-27T02:41:55.879Z,0
2017-02-27T02:42:55.851Z,0
2017-02-27T02:43:55.816Z,0
2017-02-27T02:44:55.819Z,0
2017-02-27T02:45:55.784Z,0
2017-02-27T02:46:55.762Z,0
2017-02-27T02:47:55.757Z,0
2017-02-27T02:48:55.755Z,0
2017-02-27T02:49:55.717Z,0
2017-02-27T02:50:55.724Z,0
2017-02-27T02:51:55.718Z,0
2017-02-27T02:52:55.312Z,0
2017-02-27T02:53:55.292Z,0
2017-02-27T02:54:55.264Z,0
2017-02-27T02:55:55.256Z,0
2017-02-27T02:56:55.618Z,0
2017-02-27T02:57:55.204Z,0
2017-02-27T02:58:55.587Z,0
2017-02-27T02:59:55.591Z,0
2017-02-27T03:00:55.575Z,0
2017-02-27T03:01:55.187Z,0
2017-02-27T03:02:54.761Z,0
2017-02-27T03:03:55.516Z,0
2017-02-27T03:04:55.522Z,0
2017-02-27T03:05:55.497Z,0
2017-02-27T03:06:55.091Z,0
2017-02-27T03:07:55.453Z,0
2017-02-27T03:08:55.467Z,0
2017-02-27T03:09:55.445Z,0
2017-02-27T03:10:55.427Z,0
2017-02-27T03:11:55.392Z,0
2017-02-27T03:12:55.399Z,0
2017-02-27T03:13:54.997Z,0
2017-02-27T03:14:55.364Z,0
2017-02-27T03:15:54.955Z,0
2017-02-27T03:16:54.939Z,0
2017-02-27T03:17:54.930Z,0
2017-02-27T03:18:54.907Z,0
2017-02-27T03:19:55.273Z,0
2017-02-27T03:20:54.880Z,0
2017-02-27T03:21:54.883Z,0
2017-02-27T03:22:55.217Z,0
2017-02-27T03:23:55.258Z,0
2017-02-27T03:24:54.808Z,0
2017-02-27T03:25:54.791Z,0
2017-02-27T03:26:54.409Z,0
2017-02-27T03:27:54.759Z,0
2017-02-27T03:28:54.765Z,0
2017-02-27T03:29:54.737Z,0
2017-02-27T03:30:54.358Z,0
2017-02-27T03:31:55.115Z,0
2017-02-27T03:32:55.078Z,0
2017-02-27T03:33:55.070Z,0
2017-02-27T03:34:55.047Z,0
2017-02-27T03:35:55.045Z,0
2017-02-27T03:36:55.024Z,0
2017-02-27T03:37:55.030Z,0
2017-02-27T03:38:54.961Z,0
2017-02-27T03:39:54.994Z,0
2017-02-27T03:40:54.932Z,0
2017-02-27T03:41:54.915Z,0
2017-02-27T03:42:54.943Z,0
2017-02-27T03:43:54.892Z,0
2017-02-27T03:44:54.882Z,0
2017-02-27T03:45:54.465Z,0
2017-02-27T03:46:54.461Z,0
2017-02-27T03:47:54.844Z,0
2017-02-27T03:48:54.856Z,0
2017-02-27T03:49:54.428Z,0
2017-02-27T03:50:54.387Z,0
2017-02-27T03:51:54.766Z,0
2017-02-27T03:52:54.371Z,0
2017-02-27T03:53:54.354Z,0
2017-02-27T03:54:54.341Z,0
2017-02-27T03:55:54.315Z,0
2017-02-27T03:56:54.684Z,0
2017-02-27T03:57:54.666Z,0
2017-02-27T03:58:54.634Z,0
2017-02-27T03:59:54.655Z,0
2017-02-27T04:00:54.663Z,0
2017-02-27T04:01:54.592Z,0
2017-02-27T04:02:54.586Z,0
2017-02-27T04:03:54.569Z,0
2017-02-27T04:04:54.560Z,0
2017-02-27T04:05:54.551Z,0
2017-02-27T04:06:54.123Z,0
2017-02-27T04:07:54.505Z,0
2017-02-27T04:08:54.105Z,0
2017-02-27T04:09:54.477Z,0
2017-02-27T04:10:54.057Z,0
2017-02-27T04:11:54.429Z,0
2017-02-27T04:12:54.426Z,0
2017-02-27T04:13:54.420Z,0
2017-02-27T04:14:54.398Z,0
2017-02-27T04:15:53.995Z,0
2017-02-27T04:16:54.370Z,0
2017-02-27T04:17:54.325Z,0
2017-02-27T04:18:53.938Z,0
2017-02-27T04:19:53.924Z,0
2017-02-27T04:20:53.902Z,0
2017-02-27T04:21:54.286Z,0
2017-02-27T04:22:53.865Z,0
2017-02-27T04:23:53.858Z,0
2017-02-27T04:24:54.260Z,0
2017-02-27T04:25:53.846Z,0
2017-02-27T04:26:54.185Z,0
2017-02-27T04:27:54.191Z,0
2017-02-27T04:28:54.149Z,0
2017-02-27T04:29:54.154Z,0
2017-02-27T04:30:54.132Z,0
2017-02-27T04:31:54.099Z,0
2017-02-27T04:32:53.725Z,0
2017-02-27T04:33:53.683Z,0
2017-02-27T04:34:53.700Z,0
2017-02-27T04:35:54.025Z,0
2017-02-27T04:36:53.628Z,0
2017-02-27T04:37:53.649Z,0
2017-02-27T04:38:53.614Z,0
2017-02-27T04:39:53.993Z,0
2017-02-27T04:40:53.964Z,0
2017-02-27T04:41:53.963Z,0
2017-02-27T04:42:53.940Z,0
2017-02-27T04:43:53.960Z,0
2017-02-27T04:44:53.889Z,0
2017-02-27T04:45:53.874Z,0
2017-02-27T04:46:53.863Z,0
2017-02-27T04:47:53.855Z,0
2017-02-27T04:48:53.858Z,0
2017-02-27T04:49:53.814Z,0
2017-02-27T04:50:53.806Z,0
2017-02-27T04:51:53.784Z,0
2017-02-27T04:52:53.771Z,0
2017-02-27T04:53:53.743Z,0
2017-02-27T04:54:53.352Z,0
2017-02-27T04:55:53.710Z,0
2017-02-27T04:56:53.697Z,0
2017-02-27T04:57:53.727Z,0
2017-02-27T04:58:53.686Z,0
2017-02-27T04:59:53.273Z,0
2017-02-27T05:00:53.259Z,0
2017-02-27T05:01:53.621Z,0
2017-02-27T05:02:53.232Z,0
2017-02-27T05:03:53.213Z,0
2017-02-27T05:04:53.200Z,0
2017-02-27T05:05:53.549Z,0
2017-02-27T05:06:53.534Z,0
2017-02-27T05:07:53.569Z,0
2017-02-27T05:08:53.528Z,0
2017-02-27T05:09:53.540Z,0
2017-02-27T05:10:53.486Z,0
2017-02-27T05:11:53.499Z,0
2017-02-27T05:12:53.459Z,0
2017-02-27T05:13:53.083Z,0
2017-02-27T05:14:53.435Z,0
2017-02-27T05:15:53.423Z,0
2017-02-27T05:16:53.015Z,0
2017-02-27T05:17:52.233Z,0
2017-02-27T05:18:53.356Z,0
2017-02-27T05:19:53.368Z,0
2017-02-27T05:20:52.923Z,0
2017-02-27T05:21:53.323Z,0
2017-02-27T05:22:52.911Z,0
2017-02-27T05:23:52.878Z,0
2017-02-27T05:24:53.254Z,0
2017-02-27T05:25:53.267Z,0
2017-02-27T05:26:53.255Z,0
2017-02-27T05:27:52.851Z,0
2017-02-27T05:28:53.199Z,4
2017-02-27T05:29:52.794Z,4
2017-02-27T05:30:52.800Z,0
2017-02-27T05:31:53.177Z,4
2017-02-27T05:32:52.765Z,4
2017-02-27T05:33:53.112Z,8
2017-02-27T05:34:53.093Z,4
2017-02-27T05:35:53.069Z,8
2017-02-27T05:36:53.088Z,8
2017-02-27T05:37:53.058Z,12
2017-02-27T05:38:53.043Z,12
2017-02-27T05:39:53.028Z,16
2017-02-27T05:40:53.023Z,24
2017-02-27T05:41:52.993Z,28
2017-02-27T05:42:52.971Z,36
2017-02-27T05:43:52.970Z,44
2017-02-27T05:44:52.942Z,56
2017-02-27T05:45:52.918Z,68
2017-02-27T05:46:52.910Z,80
2017-02-27T05:47:52.934Z,96
2017-02-27T05:48:52.889Z,112
2017-02-27T05:49:52.533Z,136
2017-02-27T05:50:52.891Z,160
2017-02-27T05:51:52.835Z,188
2017-02-27T05:52:52.828Z,220
2017-02-27T05:53:52.803Z,256
2017-02-27T05:54:52.803Z,292
2017-02-27T05:55:52.418Z,328
2017-02-27T05:56:52.784Z,372
2017-02-27T05:57:52.771Z,416
2017-02-27T05:58:52.354Z,456
2017-02-27T05:59:52.725Z,500
2017-02-27T06:00:52.748Z,536
2017-02-27T06:01:52.686Z,572
2017-02-27T06:02:52.678Z,616
2017-02-27T06:03:52.708Z,676
2017-02-27T06:04:52.697Z,736
2017-02-27T06:05:52.661Z,800
2017-02-27T06:06:52.255Z,868
2017-02-27T06:07:52.598Z,924
2017-02-27T06:08:52.597Z,964
2017-02-27T06:09:52.586Z,988
2017-02-27T06:10:52.187Z,1000
2017-02-27T06:11:52.175Z,1012
2017-02-27T06:12:52.552Z,1036
2017-02-27T06:13:52.126Z,1068
2017-02-27T06:14:52.138Z,1140
2017-02-27T06:15:52.098Z,1220
2017-02-27T06:16:52.476Z,1272
2017-02-27T06:17:52.068Z,1336
2017-02-27T06:18:52.070Z,1424
2017-02-27T06:19:52.431Z,1572
2017-02-27T06:20:52.428Z,1752
2017-02-27T06:21:52.439Z,1940
2017-02-27T06:22:52.429Z,2128
2017-02-27T06:23:52.379Z,2392
2017-02-27T06:24:52.377Z,2684
2017-02-27T06:25:52.369Z,3076
2017-02-27T06:26:52.325Z,3536
2017-02-27T06:27:52.336Z,3928
2017-02-27T06:28:52.351Z,4256
2017-02-27T06:29:52.286Z,4512
2017-02-27T06:30:52.283Z,4712
2017-02-27T06:31:52.272Z,4892
2017-02-27T06:32:52.293Z,4988
2017-02-27T06:33:52.269Z,5016
2017-02-27T06:34:52.221Z,5096
2017-02-27T06:35:52.254Z,5236
2017-02-27T06:36:52.210Z,5420
2017-02-27T06:37:52.175Z,5560
2017-02-27T06:38:52.147Z,5756
2017-02-27T06:39:52.149Z,6000
2017-02-27T06:40:52.160Z,6356
2017-02-27T06:41:52.112Z,6756
2017-02-27T06:42:52.113Z,6992
2017-02-27T06:43:52.082Z,7000
2017-02-27T06:44:52.073Z,7048
2017-02-27T06:45:52.052Z,6804
2017-02-27T06:46:52.055Z,6864
2017-02-27T06:47:52.022Z,7280
2017-02-27T06:48:51.994Z,7536
2017-02-27T06:49:51.991Z,8216
2017-02-27T06:50:51.965Z,8312
2017-02-27T06:51:51.971Z,9024
2017-02-27T06:52:51.951Z,8964
2017-02-27T06:53:51.985Z,7988
2017-02-27T06:54:51.918Z,7180
2017-02-27T06:55:51.916Z,7084
2017-02-27T06:56:51.876Z,7692
2017-02-27T06:57:51.901Z,8388
2017-02-27T06:58:51.900Z,7596
2017-02-27T06:59:51.861Z,7732
2017-02-27T07:00:51.857Z,8520
2017-02-27T07:01:51.434Z,9708
2017-02-27T07:02:51.818Z,10176
2017-02-27T07:03:51.815Z,10532
2017-02-27T07:04:51.819Z,11468
2017-02-27T07:05:51.786Z,11044
2017-02-27T07:06:51.753Z,9724
2017-02-27T07:07:51.754Z,10644
2017-02-27T07:08:51.725Z,10392
2017-02-27T07:09:51.716Z,8656
2017-02-27T07:10:51.710Z,7304
2017-02-27T07:11:51.693Z,6952
2017-02-27T07:12:51.696Z,6660
2017-02-27T07:13:51.654Z,6444
2017-02-27T07:14:51.654Z,6416
2017-02-27T07:15:51.654Z,6516
2017-02-27T07:16:51.643Z,6700
2017-02-27T07:17:51.610Z,6928
2017-02-27T07:18:51.597Z,7096
2017-02-27T07:19:51.191Z,7236
2017-02-27T07:20:51.187Z,7532
2017-02-27T07:21:51.544Z,7916
2017-02-27T07:22:51.544Z,8308
2017-02-27T07:23:51.113Z,8800
2017-02-27T07:24:51.498Z,9528
2017-02-27T07:25:51.087Z,10380
2017-02-27T07:26:51.480Z,11304
2017-02-27T07:27:51.458Z,11828
2017-02-27T07:28:51.417Z,11548
2017-02-27T07:29:51.417Z,10884
2017-02-27T07:30:51.415Z,10204
2017-02-27T07:31:51.407Z,9360
2017-02-27T07:32:50.978Z,8988
2017-02-27T07:33:51.360Z,8940
2017-02-27T07:34:51.324Z,8940
2017-02-27T07:35:51.361Z,8848
2017-02-27T07:36:51.323Z,8656
2017-02-27T07:37:51.321Z,8368
2017-02-27T07:38:51.300Z,8196
2017-02-27T07:39:51.262Z,8236
2017-02-27T07:40:51.284Z,8172
2017-02-27T07:41:51.254Z,8164
2017-02-27T07:42:51.203Z,8540
2017-02-27T07:43:50.430Z,14168
2017-02-27T07:44:51.191Z,15668
2017-02-27T07:45:50.815Z,15488
2017-02-27T07:46:51.168Z,22528
2017-02-27T07:47:51.157Z,28160
2017-02-27T07:48:51.144Z,30240
2017-02-27T07:49:50.732Z,27040
2017-02-27T07:50:51.156Z,26528
2017-02-27T07:51:51.096Z,26624
2017-02-27T07:52:51.072Z,24992
2017-02-27T07:53:51.045Z,27136
2017-02-27T07:54:51.044Z,30496
2017-02-27T07:55:51.065Z,30400
2017-02-27T07:56:51.015Z,30496
2017-02-27T07:57:50.987Z,31712
2017-02-27T07:58:51.007Z,30944
2017-02-27T07:59:50.965Z,30688
2017-02-27T08:00:50.990Z,32448
2017-02-27T08:01:50.534Z,32832
2017-02-27T08:02:50.920Z,31392
2017-02-27T08:03:50.898Z,33408
2017-02-27T08:04:50.926Z,28000
2017-02-27T08:05:50.878Z,27840
2017-02-27T08:06:50.882Z,21632
2017-02-27T08:07:50.870Z,17152
2017-02-27T08:08:50.846Z,22560
2017-02-27T08:09:50.821Z,25120
2017-02-27T08:10:50.482Z,29344
2017-02-27T08:11:50.802Z,30784
2017-02-27T08:12:50.782Z,36480
2017-02-27T08:13:50.784Z,36896
2017-02-27T08:14:50.751Z,32672
2017-02-27T08:15:50.763Z,30720
2017-02-27T08:16:50.759Z,30464
2017-02-27T08:17:50.705Z,32256
2017-02-27T08:18:50.729Z,30688
2017-02-27T08:19:50.714Z,32672
2017-02-27T08:20:50.693Z,35232
2017-02-27T08:21:50.684Z,34848
2017-02-27T08:22:50.261Z,36960
2017-02-27T08:23:50.652Z,43200
2017-02-27T08:24:50.657Z,45088
2017-02-27T08:25:50.609Z,50944
2017-02-27T08:26:50.618Z,55968
2017-02-27T08:27:50.622Z,61856
2017-02-27T08:28:50.564Z,62304
2017-02-27T08:29:50.562Z,61120
2017-02-27T08:30:50.571Z,50016
2017-02-27T08:31:50.530Z,31680
2017-02-27T08:32:50.564Z,27008
2017-02-27T08:33:50.531Z,41472
2017-02-27T08:34:50.115Z,39424
2017-02-27T08:35:50.529Z,40064
2017-02-27T08:36:50.505Z,43328
2017-02-27T08:37:50.502Z,43264
2017-02-27T08:38:50.471Z,40160
2017-02-27T08:39:50.450Z,38592
2017-02-27T08:40:50.440Z,41728
2017-02-27T08:41:50.423Z,43648
2017-02-27T08:42:50.425Z,42688
2017-02-27T08:43:50.410Z,44160
2017-02-27T08:44:50.415Z,43456
2017-02-27T08:45:50.402Z,44768
2017-02-27T08:46:50.377Z,44096
2017-02-27T08:47:50.360Z,47872
2017-02-27T08:48:50.370Z,54176
2017-02-27T08:49:50.346Z,54528
2017-02-27T08:50:49.944Z,45632
2017-02-27T08:51:50.353Z,23584
2017-02-27T08:52:49.526Z,36768
2017-02-27T08:53:50.299Z,51008
2017-02-27T08:54:50.286Z,49728
2017-02-27T08:55:50.272Z,52416
2017-02-27T08:56:50.276Z,52416
2017-02-27T08:57:50.249Z,49760
2017-02-27T08:58:50.262Z,40544
2017-02-27T08:59:50.251Z,22240
2017-02-27T09:00:50.210Z,28704
2017-02-27T09:01:50.243Z,37024
2017-02-27T09:02:49.437Z,46688
2017-02-27T09:03:50.169Z,54336
2017-02-27T09:04:50.189Z,60288
2017-02-27T09:05:50.151Z,49056
2017-02-27T09:06:50.154Z,45120
2017-02-27T09:07:50.152Z,49824
2017-02-27T09:08:50.128Z,55712
2017-02-27T09:09:50.086Z,60096
2017-02-27T09:10:50.075Z,62912
2017-02-27T09:11:50.085Z,51232
2017-02-27T09:12:49.310Z,59552
2017-02-27T09:13:50.073Z,57664
2017-02-27T09:14:49.644Z,61376
2017-02-27T09:15:49.997Z,65728
2017-02-27T09:16:49.606Z,69024
2017-02-27T09:17:49.996Z,66400
2017-02-27T09:18:49.986Z,59232
2017-02-27T09:19:49.591Z,59488
2017-02-27T09:20:49.606Z,57504
2017-02-27T09:21:49.588Z,63072
2017-02-27T09:22:49.166Z,64192
2017-02-27T09:23:49.540Z,56416
2017-02-27T09:24:49.518Z,66144
2017-02-27T09:25:49.500Z,80128
2017-02-27T09:26:49.884Z,81216
2017-02-27T09:27:49.886Z,75008
2017-02-27T09:28:49.458Z,71264
2017-02-27T09:29:49.840Z,68320
2017-02-27T09:30:49.843Z,66368
2017-02-27T09:31:49.821Z,65408
2017-02-27T09:32:49.413Z,61536
2017-02-27T09:33:49.842Z,58656
2017-02-27T09:34:49.811Z,61536
2017-02-27T09:35:49.789Z,63392
2017-02-27T09:36:49.782Z,66624
2017-02-27T09:37:49.763Z,62816
2017-02-27T09:38:49.735Z,64832
2017-02-27T09:39:49.709Z,73216
2017-02-27T09:40:49.716Z,67104
2017-02-27T09:41:49.683Z,56896
2017-02-27T09:42:49.667Z,47456
2017-02-27T09:43:49.666Z,36256
2017-02-27T09:44:49.647Z,62592
2017-02-27T09:45:49.618Z,37824
2017-02-27T09:46:49.638Z,37312
2017-02-27T09:47:49.621Z,37728
2017-02-27T09:48:49.582Z,37344
2017-02-27T09:49:49.600Z,35776
2017-02-27T09:50:49.618Z,34368
2017-02-27T09:51:49.572Z,33504
2017-02-27T09:52:49.536Z,33376
2017-02-27T09:53:49.518Z,33152
2017-02-27T09:54:49.521Z,32608
2017-02-27T09:55:49.501Z,31488
2017-02-27T09:56:49.511Z,29600
2017-02-27T09:57:49.466Z,27360
2017-02-27T09:58:49.467Z,25536
2017-02-27T09:59:49.468Z,25120
2017-02-27T10:00:49.478Z,26496
2017-02-27T10:01:49.419Z,29184
2017-02-27T10:02:49.391Z,30304
2017-02-27T10:03:49.391Z,30624
2017-02-27T10:04:49.391Z,32864
2017-02-27T10:05:49.370Z,35456
2017-02-27T10:06:49.353Z,36864
2017-02-27T10:07:49.308Z,36832
2017-02-27T10:08:49.332Z,34912
2017-02-27T10:09:49.313Z,33280
2017-02-27T10:10:49.305Z,33824
2017-02-27T10:11:49.261Z,34560
2017-02-27T10:12:49.277Z,34880
2017-02-27T10:13:49.241Z,36736
2017-02-27T10:14:49.227Z,38208
2017-02-27T10:15:48.815Z,37344
2017-02-27T10:16:49.192Z,38976
2017-02-27T10:17:49.183Z,49472
2017-02-27T10:18:49.155Z,60416
2017-02-27T10:19:48.790Z,57568
2017-02-27T10:20:49.152Z,46912
2017-02-27T10:21:49.099Z,43008
2017-02-27T10:22:49.113Z,40064
2017-02-27T10:23:49.091Z,41248
2017-02-27T10:24:49.078Z,41696
2017-02-27T10:25:49.044Z,39712
2017-02-27T10:26:49.049Z,38720
2017-02-27T10:27:49.022Z,38976
2017-02-27T10:28:48.670Z,38944
2017-02-27T10:29:49.019Z,38304
2017-02-27T10:30:49.008Z,38464
2017-02-27T10:31:48.966Z,41664
2017-02-27T10:32:48.949Z,44064
2017-02-27T10:33:48.939Z,34080
2017-02-27T10:34:48.922Z,24448
2017-02-27T10:35:48.903Z,24832
2017-02-27T10:36:48.888Z,39008
2017-02-27T10:37:48.863Z,27680
2017-02-27T10:38:48.842Z,35264
2017-02-27T10:39:48.867Z,33248
2017-02-27T10:40:48.838Z,44544
2017-02-27T10:41:48.832Z,33632
2017-02-27T10:42:48.782Z,56864
2017-02-27T10:43:48.780Z,30784
2017-02-27T10:44:48.782Z,36480
2017-02-27T10:45:48.766Z,51936
2017-02-27T10:46:48.732Z,47040
2017-02-27T10:47:48.741Z,48672
2017-02-27T10:48:48.705Z,38048
2017-02-27T10:49:48.694Z,38240
2017-02-27T10:50:48.677Z,37600
2017-02-27T10:51:48.698Z,45280
2017-02-27T10:52:48.660Z,54624
2017-02-27T10:53:48.620Z,40512
2017-02-27T10:54:48.600Z,41568
2017-02-27T10:55:48.593Z,36000
2017-02-27T10:56:48.633Z,29600
2017-02-27T10:57:48.557Z,26624
2017-02-27T10:58:48.555Z,26688
2017-02-27T10:59:48.529Z,26656
2017-02-27T11:00:48.526Z,27808
2017-02-27T11:01:48.544Z,29088
2017-02-27T11:02:48.489Z,30816
2017-02-27T11:03:48.471Z,30368
2017-02-27T11:04:48.464Z,28800
2017-02-27T11:05:48.461Z,27328
2017-02-27T11:06:48.423Z,27232
2017-02-27T11:07:48.448Z,30080
2017-02-27T11:08:48.409Z,33248
2017-02-27T11:09:48.382Z,34144
2017-02-27T11:10:48.359Z,31968
2017-02-27T11:11:48.339Z,30336
2017-02-27T11:12:48.334Z,31168
2017-02-27T11:13:48.348Z,32608
2017-02-27T11:14:48.307Z,34336
2017-02-27T11:15:48.278Z,35072
2017-02-27T11:16:48.287Z,44704
2017-02-27T11:17:48.270Z,37760
2017-02-27T11:18:48.263Z,43872
2017-02-27T11:19:48.265Z,87040
2017-02-27T11:20:48.239Z,35168
2017-02-27T11:21:48.211Z,33888
2017-02-27T11:22:48.170Z,31488
2017-02-27T11:23:48.207Z,34560
2017-02-27T11:24:48.181Z,43040
2017-02-27T11:25:48.144Z,41504
2017-02-27T11:26:48.122Z,40000
2017-02-27T11:27:48.115Z,42784
2017-02-27T11:28:48.095Z,55296
2017-02-27T11:29:48.108Z,45312
2017-02-27T11:30:48.059Z,45024
2017-02-27T11:31:48.058Z,42400
2017-02-27T11:32:48.036Z,41152
2017-02-27T11:33:48.026Z,41472
2017-02-27T11:34:47.973Z,40448
2017-02-27T11:35:47.993Z,38464
2017-02-27T11:36:47.974Z,37952
2017-02-27T11:37:47.948Z,39168
2017-02-27T11:38:47.935Z,40032
2017-02-27T11:39:47.930Z,39616
2017-02-27T11:40:47.914Z,39296
2017-02-27T11:41:47.879Z,38944
2017-02-27T11:42:47.889Z,36128
2017-02-27T11:43:47.832Z,33280
2017-02-27T11:44:47.444Z,32896
2017-02-27T11:45:47.873Z,34336
2017-02-27T11:46:47.792Z,36224
2017-02-27T11:47:47.788Z,37088
2017-02-27T11:48:47.773Z,38176
2017-02-27T11:49:47.386Z,39200
2017-02-27T11:50:47.757Z,41248
2017-02-27T11:51:47.723Z,44192
2017-02-27T11:52:47.727Z,45952
2017-02-27T11:53:47.698Z,97280
2017-02-27T11:54:47.737Z,45824
2017-02-27T11:55:47.709Z,51136
2017-02-27T11:56:47.653Z,50240
2017-02-27T11:57:47.629Z,48640
2017-02-27T11:58:47.626Z,42400
2017-02-27T11:59:47.623Z,40736
2017-02-27T12:00:47.573Z,38528
2017-02-27T12:01:47.561Z,37408
2017-02-27T12:02:47.582Z,37856
2017-02-27T12:03:47.563Z,38912
2017-02-27T12:04:47.525Z,39456
2017-02-27T12:05:47.541Z,43776
2017-02-27T12:06:47.534Z,43520
2017-02-27T12:07:47.502Z,39520
2017-02-27T12:08:47.489Z,38272
2017-02-27T12:09:47.468Z,35680
2017-02-27T12:10:47.456Z,36448
2017-02-27T12:11:47.430Z,44448
2017-02-27T12:12:47.413Z,46944
2017-02-27T12:13:47.387Z,42720
2017-02-27T12:14:47.392Z,45408
2017-02-27T12:15:46.998Z,50880
2017-02-27T12:16:46.966Z,55008
2017-02-27T12:17:47.347Z,59680
2017-02-27T12:18:47.323Z,62656
2017-02-27T12:19:46.945Z,46080
2017-02-27T12:20:47.315Z,41792
2017-02-27T12:21:47.286Z,42080
2017-02-27T12:22:47.469Z,35520
2017-02-27T12:23:46.674Z,31584
2017-02-27T12:24:47.237Z,30144
2017-02-27T12:25:47.220Z,31616
2017-02-27T12:26:47.195Z,35680
2017-02-27T12:27:46.808Z,48288
2017-02-27T12:28:46.824Z,65728
2017-02-27T12:29:47.177Z,54880
2017-02-27T12:30:47.131Z,40704
2017-02-27T12:31:47.146Z,25184
2017-02-27T12:32:47.128Z,22336
2017-02-27T12:33:47.138Z,24288
2017-02-27T12:34:46.708Z,37728
2017-02-27T12:35:47.055Z,51456
2017-02-27T12:36:47.060Z,53984
2017-02-27T12:37:47.033Z,94176
2017-02-27T12:38:47.011Z,100320
2017-02-27T12:39:47.037Z,91808
2017-02-27T12:40:47.025Z,77536
2017-02-27T12:41:46.972Z,86656
2017-02-27T12:42:46.979Z,79584
2017-02-27T12:43:46.933Z,67936
2017-02-27T12:44:46.942Z,70720
2017-02-27T12:45:46.949Z,69248
2017-02-27T12:46:46.904Z,45920
2017-02-27T12:47:46.900Z,72192
2017-02-27T12:48:46.481Z,66432
2017-02-27T12:49:46.865Z,62240
2017-02-27T12:50:46.462Z,58784
2017-02-27T12:51:46.835Z,55840
2017-02-27T12:52:46.689Z,56320
2017-02-27T12:53:46.410Z,53760
2017-02-27T12:54:46.772Z,58848
2017-02-27T12:55:46.789Z,60768
2017-02-27T12:56:46.385Z,59264
2017-02-27T12:57:46.774Z,57536
2017-02-27T12:58:46.722Z,64960
2017-02-27T12:59:46.314Z,70560
2017-02-27T13:00:46.706Z,75840
2017-02-27T13:01:46.694Z,80928
2017-02-27T13:02:45.914Z,83776
2017-02-27T13:03:46.638Z,76928
2017-02-27T13:04:46.852Z,75136
2017-02-27T13:05:46.652Z,66464
2017-02-27T13:06:46.650Z,63904
2017-02-27T13:07:46.232Z,63808
2017-02-27T13:08:46.608Z,68256
2017-02-27T13:09:46.587Z,67200
2017-02-27T13:10:46.575Z,65952
2017-02-27T13:11:46.546Z,63744
2017-02-27T13:12:46.546Z,67104
2017-02-27T13:13:46.534Z,66048
2017-02-27T13:14:46.546Z,64224
2017-02-27T13:15:46.139Z,67648
2017-02-27T13:16:46.531Z,65152
2017-02-27T13:17:46.482Z,60928
2017-02-27T13:18:46.464Z,58240
2017-02-27T13:19:46.486Z,52992
2017-02-27T13:20:46.462Z,59552
2017-02-27T13:21:46.461Z,50272
2017-02-27T13:22:46.415Z,48384
2017-02-27T13:23:46.399Z,42528
2017-02-27T13:24:46.443Z,53024
2017-02-27T13:25:46.374Z,51264
2017-02-27T13:26:46.399Z,53408
2017-02-27T13:27:46.016Z,55552
2017-02-27T13:28:46.573Z,51264
2017-02-27T13:29:46.369Z,58272
2017-02-27T13:30:46.355Z,66176
2017-02-27T13:31:46.341Z,65920
2017-02-27T13:32:46.312Z,62752
2017-02-27T13:33:59.974Z,56288
2017-02-27T13:34:46.286Z,51904
2017-02-27T13:35:59.688Z,61664
2017-02-27T13:36:46.115Z,52384
2017-02-27T13:37:46.285Z,52000
2017-02-27T13:38:46.241Z,56768
2017-02-27T13:39:46.233Z,53600
2017-02-27T13:40:45.840Z,45952
2017-02-27T13:41:46.441Z,37408
2017-02-27T13:42:45.820Z,35136
2017-02-27T13:43:46.167Z,19488
2017-02-27T13:44:45.781Z,23424
2017-02-27T13:45:46.161Z,50752
2017-02-27T13:46:46.157Z,50592
2017-02-27T13:47:46.134Z,48000
2017-02-27T13:48:45.712Z,26624
2017-02-27T13:49:46.118Z,32864
2017-02-27T13:50:45.708Z,33408
2017-02-27T13:51:46.089Z,36832
2017-02-27T13:52:45.679Z,55424
2017-02-27T13:53:46.048Z,62432